sensor_id;sensor_type;location;lat;lon;timestamp;P1;durP1;ratioP1;P2;durP2;ratioP2
22318;SDS011;11327;52.334;9.506;2023-04-01T00:01:20;7.40;;;1.82;;
22318;SDS011;11327;52.334;9.506;2023-04-01T00:04:41;2.60;;;1.42;;
22318;SDS011;11327;52.334;9.506;2023-04-01T00:08:02;5.55;;;1.75;;
22318;SDS011;11327;52.334;9.506;2023-04-01T00:11:23;3.47;;;1.47;;
22318;SDS011;11327;52.334;9.506;2023-04-01T00:14:44;2.98;;;1.25;;
22318;SDS011;11327;52.334;9.506;2023-04-01T00:18:05;3.20;;;1.22;;
22318;SDS011;11327;52.334;9.506;2023-04-01T00:21:26;3.30;;;1.25;;
22318;SDS011;11327;52.334;9.506;2023-04-01T00:24:47;4.05;;;1.00;;
22318;SDS011;11327;52.334;9.506;2023-04-01T00:28:08;2.55;;;1.20;;
22318;SDS011;11327;52.334;9.506;2023-04-01T00:31:30;3.33;;;1.50;;
22318;SDS011;11327;52.334;9.506;2023-04-01T00:34:50;3.60;;;1.30;;
22318;SDS011;11327;52.334;9.506;2023-04-01T00:38:12;5.35;;;1.00;;
22318;SDS011;11327;52.334;9.506;2023-04-01T00:41:33;3.55;;;1.10;;
22318;SDS011;11327;52.334;9.506;2023-04-01T00:44:54;3.85;;;1.30;;
22318;SDS011;11327;52.334;9.506;2023-04-01T00:48:22;2.67;;;1.07;;
22318;SDS011;11327;52.334;9.506;2023-04-01T00:51:46;2.52;;;0.95;;
22318;SDS011;11327;52.334;9.506;2023-04-01T00:55:10;1.90;;;0.82;;
22318;SDS011;11327;52.334;9.506;2023-04-01T00:58:35;3.35;;;0.82;;
22318;SDS011;11327;52.334;9.506;2023-04-01T01:01:57;3.22;;;0.85;;
22318;SDS011;11327;52.334;9.506;2023-04-01T01:05:19;2.52;;;0.70;;
22318;SDS011;11327;52.334;9.506;2023-04-01T01:08:52;3.37;;;0.60;;
22318;SDS011;11327;52.334;9.506;2023-04-01T01:12:20;3.52;;;1.10;;
22318;SDS011;11327;52.334;9.506;2023-04-01T01:16:02;2.00;;;0.60;;
22318;SDS011;11327;52.334;9.506;2023-04-01T01:27:06;0.80;;;0.53;;
22318;SDS011;11327;52.334;9.506;2023-04-01T01:30:33;1.52;;;0.70;;
22318;SDS011;11327;52.334;9.506;2023-04-01T01:37:26;2.30;;;1.07;;
22318;SDS011;11327;52.334;9.506;2023-04-01T01:40:50;2.70;;;1.20;;
22318;SDS011;11327;52.334;9.506;2023-04-01T01:44:14;2.92;;;1.50;;
22318;SDS011;11327;52.334;9.506;2023-04-01T01:47:37;2.45;;;1.30;;
22318;SDS011;11327;52.334;9.506;2023-04-01T01:50:58;3.90;;;1.40;;
22318;SDS011;11327;52.334;9.506;2023-04-01T01:54:20;3.42;;;0.90;;
22318;SDS011;11327;52.334;9.506;2023-04-01T01:57:41;3.67;;;1.05;;
22318;SDS011;11327;52.334;9.506;2023-04-01T02:01:05;1.92;;;0.78;;
22318;SDS011;11327;52.334;9.506;2023-04-01T02:04:28;2.15;;;0.75;;
22318;SDS011;11327;52.334;9.506;2023-04-01T02:07:55;1.02;;;0.55;;
22318;SDS011;11327;52.334;9.506;2023-04-01T02:11:18;2.40;;;0.88;;
22318;SDS011;11327;52.334;9.506;2023-04-01T02:18:09;1.47;;;0.60;;
22318;SDS011;11327;52.334;9.506;2023-04-01T02:21:31;1.57;;;0.60;;
22318;SDS011;11327;52.334;9.506;2023-04-01T02:24:53;1.77;;;0.95;;
22318;SDS011;11327;52.334;9.506;2023-04-01T02:28:17;1.90;;;0.93;;
22318;SDS011;11327;52.334;9.506;2023-04-01T02:31:40;1.52;;;1.00;;
22318;SDS011;11327;52.334;9.506;2023-04-01T02:35:03;1.10;;;0.90;;
22318;SDS011;11327;52.334;9.506;2023-04-01T02:38:26;1.95;;;1.00;;
22318;SDS011;11327;52.334;9.506;2023-04-01T02:41:47;1.98;;;0.70;;
22318;SDS011;11327;52.334;9.506;2023-04-01T02:45:09;2.70;;;1.10;;
22318;SDS011;11327;52.334;9.506;2023-04-01T02:48:30;1.35;;;0.65;;
22318;SDS011;11327;52.334;9.506;2023-04-01T02:51:51;3.52;;;0.60;;
22318;SDS011;11327;52.334;9.506;2023-04-01T02:55:12;1.92;;;0.70;;
22318;SDS011;11327;52.334;9.506;2023-04-01T02:58:32;1.72;;;0.60;;
22318;SDS011;11327;52.334;9.506;2023-04-01T03:01:53;3.02;;;0.70;;
22318;SDS011;11327;52.334;9.506;2023-04-01T03:05:14;2.80;;;0.65;;
22318;SDS011;11327;52.334;9.506;2023-04-01T03:08:35;1.60;;;0.57;;
22318;SDS011;11327;52.334;9.506;2023-04-01T03:11:56;3.30;;;0.50;;
22318;SDS011;11327;52.334;9.506;2023-04-01T03:15:17;3.52;;;0.53;;
22318;SDS011;11327;52.334;9.506;2023-04-01T03:18:38;1.25;;;0.40;;
22318;SDS011;11327;52.334;9.506;2023-04-01T03:21:58;2.33;;;0.50;;
22318;SDS011;11327;52.334;9.506;2023-04-01T03:25:19;2.60;;;0.55;;
22318;SDS011;11327;52.334;9.506;2023-04-01T03:28:40;1.47;;;0.50;;
22318;SDS011;11327;52.334;9.506;2023-04-01T03:32:01;3.27;;;0.60;;
22318;SDS011;11327;52.334;9.506;2023-04-01T03:35:22;2.60;;;0.50;;
22318;SDS011;11327;52.334;9.506;2023-04-01T03:38:43;2.47;;;0.55;;
22318;SDS011;11327;52.334;9.506;2023-04-01T03:42:04;2.62;;;0.60;;
22318;SDS011;11327;52.334;9.506;2023-04-01T03:45:26;1.65;;;0.50;;
22318;SDS011;11327;52.334;9.506;2023-04-01T03:48:47;0.95;;;0.40;;
22318;SDS011;11327;52.334;9.506;2023-04-01T03:52:11;1.87;;;0.53;;
22318;SDS011;11327;52.334;9.506;2023-04-01T03:55:31;2.00;;;0.45;;
22318;SDS011;11327;52.334;9.506;2023-04-01T03:58:52;2.70;;;0.60;;
22318;SDS011;11327;52.334;9.506;2023-04-01T04:02:13;1.30;;;0.55;;
22318;SDS011;11327;52.334;9.506;2023-04-01T04:05:34;1.75;;;0.50;;
22318;SDS011;11327;52.334;9.506;2023-04-01T04:08:54;2.27;;;0.50;;
22318;SDS011;11327;52.334;9.506;2023-04-01T04:12:15;2.33;;;0.85;;
22318;SDS011;11327;52.334;9.506;2023-04-01T04:15:36;1.80;;;0.40;;
22318;SDS011;11327;52.334;9.506;2023-04-01T04:18:56;1.87;;;0.65;;
22318;SDS011;11327;52.334;9.506;2023-04-01T04:22:17;2.87;;;0.60;;
22318;SDS011;11327;52.334;9.506;2023-04-01T04:25:38;3.37;;;0.60;;
22318;SDS011;11327;52.334;9.506;2023-04-01T04:28:59;1.37;;;0.60;;
22318;SDS011;11327;52.334;9.506;2023-04-01T04:32:20;2.55;;;0.62;;
22318;SDS011;11327;52.334;9.506;2023-04-01T04:35:40;3.20;;;0.50;;
22318;SDS011;11327;52.334;9.506;2023-04-01T04:39:01;1.85;;;0.47;;
22318;SDS011;11327;52.334;9.506;2023-04-01T04:42:23;1.52;;;0.68;;
22318;SDS011;11327;52.334;9.506;2023-04-01T04:45:44;3.65;;;0.80;;
22318;SDS011;11327;52.334;9.506;2023-04-01T04:49:05;2.05;;;0.80;;
22318;SDS011;11327;52.334;9.506;2023-04-01T04:52:27;2.05;;;0.80;;
22318;SDS011;11327;52.334;9.506;2023-04-01T04:55:48;2.65;;;0.80;;
22318;SDS011;11327;52.334;9.506;2023-04-01T04:59:09;3.05;;;1.00;;
22318;SDS011;11327;52.334;9.506;2023-04-01T05:02:30;2.22;;;1.00;;
22318;SDS011;11327;52.334;9.506;2023-04-01T05:05:52;2.55;;;1.20;;
22318;SDS011;11327;52.334;9.506;2023-04-01T05:09:14;3.65;;;1.30;;
22318;SDS011;11327;52.334;9.506;2023-04-01T05:12:35;2.25;;;1.10;;
22318;SDS011;11327;52.334;9.506;2023-04-01T05:15:59;1.77;;;1.10;;
22318;SDS011;11327;52.334;9.506;2023-04-01T05:19:19;2.87;;;1.30;;
22318;SDS011;11327;52.334;9.506;2023-04-01T05:22:40;2.30;;;1.00;;
22318;SDS011;11327;52.334;9.506;2023-04-01T05:26:07;0.93;;;0.82;;
22318;SDS011;11327;52.334;9.506;2023-04-01T05:29:25;2.08;;;1.00;;
22318;SDS011;11327;52.334;9.506;2023-04-01T05:32:46;3.75;;;1.02;;
22318;SDS011;11327;52.334;9.506;2023-04-01T05:36:08;2.08;;;0.82;;
22318;SDS011;11327;52.334;9.506;2023-04-01T05:39:30;2.83;;;0.88;;
22318;SDS011;11327;52.334;9.506;2023-04-01T05:42:51;1.55;;;0.80;;
22318;SDS011;11327;52.334;9.506;2023-04-01T05:46:11;2.70;;;0.90;;
22318;SDS011;11327;52.334;9.506;2023-04-01T05:49:32;1.20;;;0.75;;
22318;SDS011;11327;52.334;9.506;2023-04-01T05:52:54;1.55;;;0.47;;
22318;SDS011;11327;52.334;9.506;2023-04-01T05:56:15;2.05;;;0.70;;
22318;SDS011;11327;52.334;9.506;2023-04-01T05:59:35;1.45;;;0.70;;
22318;SDS011;11327;52.334;9.506;2023-04-01T06:02:58;3.77;;;0.80;;
22318;SDS011;11327;52.334;9.506;2023-04-01T06:06:23;2.15;;;0.70;;
22318;SDS011;11327;52.334;9.506;2023-04-01T06:09:46;1.70;;;0.57;;
22318;SDS011;11327;52.334;9.506;2023-04-01T06:13:10;1.35;;;0.60;;
22318;SDS011;11327;52.334;9.506;2023-04-01T06:24:17;2.52;;;1.30;;
22318;SDS011;11327;52.334;9.506;2023-04-01T06:31:34;2.15;;;1.20;;
22318;SDS011;11327;52.334;9.506;2023-04-01T06:49:53;3.15;;;0.90;;
22318;SDS011;11327;52.334;9.506;2023-04-01T06:57:52;1.40;;;0.60;;
22318;SDS011;11327;52.334;9.506;2023-04-01T07:00:40;1.12;;;0.60;;
22318;SDS011;11327;52.334;9.506;2023-04-01T07:04:09;1.05;;;0.62;;
22318;SDS011;11327;52.334;9.506;2023-04-01T07:11:08;1.47;;;0.80;;
22318;SDS011;11327;52.334;9.506;2023-04-01T07:14:35;2.37;;;0.82;;
22318;SDS011;11327;52.334;9.506;2023-04-01T07:18:09;1.85;;;0.70;;
22318;SDS011;11327;52.334;9.506;2023-04-01T07:25:12;1.62;;;0.60;;
22318;SDS011;11327;52.334;9.506;2023-04-01T07:28:38;1.98;;;0.60;;
22318;SDS011;11327;52.334;9.506;2023-04-01T07:39:51;1.25;;;0.98;;
22318;SDS011;11327;52.334;9.506;2023-04-01T07:43:22;1.35;;;0.60;;
22318;SDS011;11327;52.334;9.506;2023-04-01T07:50:51;0.80;;;0.42;;
22318;SDS011;11327;52.334;9.506;2023-04-01T07:54:25;0.80;;;0.50;;
22318;SDS011;11327;52.334;9.506;2023-04-01T07:58:18;2.98;;;0.85;;
22318;SDS011;11327;52.334;9.506;2023-04-01T08:05:25;0.80;;;0.60;;
22318;SDS011;11327;52.334;9.506;2023-04-01T08:16:26;0.75;;;0.60;;
22318;SDS011;11327;52.334;9.506;2023-04-01T08:23:37;2.47;;;0.88;;
22318;SDS011;11327;52.334;9.506;2023-04-01T08:27:02;1.37;;;0.78;;
22318;SDS011;11327;52.334;9.506;2023-04-01T08:34:02;1.22;;;0.50;;
22318;SDS011;11327;52.334;9.506;2023-04-01T08:37:28;2.25;;;0.57;;
22318;SDS011;11327;52.334;9.506;2023-04-01T08:59:27;1.17;;;0.60;;
22318;SDS011;11327;52.334;9.506;2023-04-01T09:06:46;1.40;;;0.70;;
22318;SDS011;11327;52.334;9.506;2023-04-01T09:14:06;0.80;;;0.50;;
22318;SDS011;11327;52.334;9.506;2023-04-01T09:17:53;0.55;;;0.40;;
22318;SDS011;11327;52.334;9.506;2023-04-01T09:21:25;1.15;;;0.40;;
22318;SDS011;11327;52.334;9.506;2023-04-01T09:28:53;1.25;;;0.45;;
22318;SDS011;11327;52.334;9.506;2023-04-01T09:39:35;1.22;;;0.40;;
22318;SDS011;11327;52.334;9.506;2023-04-01T09:43:21;1.02;;;0.50;;
22318;SDS011;11327;52.334;9.506;2023-04-01T09:50:35;0.75;;;0.60;;
22318;SDS011;11327;52.334;9.506;2023-04-01T10:15:53;1.35;;;0.62;;
22318;SDS011;11327;52.334;9.506;2023-04-01T10:30:29;0.70;;;0.50;;
22318;SDS011;11327;52.334;9.506;2023-04-01T10:56:15;0.90;;;0.42;;
22318;SDS011;11327;52.334;9.506;2023-04-01T11:11:20;0.70;;;0.50;;
22318;SDS011;11327;52.334;9.506;2023-04-01T11:15:02;1.07;;;0.65;;
22318;SDS011;11327;52.334;9.506;2023-04-01T11:29:35;1.45;;;0.50;;
22318;SDS011;11327;52.334;9.506;2023-04-01T11:33:14;0.30;;;0.30;;
22318;SDS011;11327;52.334;9.506;2023-04-01T11:40:24;0.40;;;0.37;;
22318;SDS011;11327;52.334;9.506;2023-04-01T11:55:22;0.80;;;0.40;;
22318;SDS011;11327;52.334;9.506;2023-04-01T12:02:50;0.75;;;0.40;;
22318;SDS011;11327;52.334;9.506;2023-04-01T12:10:19;0.20;;;0.20;;
22318;SDS011;11327;52.334;9.506;2023-04-01T12:14:14;0.60;;;0.50;;
22318;SDS011;11327;52.334;9.506;2023-04-01T12:21:38;1.67;;;0.50;;
22318;SDS011;11327;52.334;9.506;2023-04-01T12:25:29;1.40;;;0.60;;
22318;SDS011;11327;52.334;9.506;2023-04-01T12:55:02;0.85;;;0.50;;
22318;SDS011;11327;52.334;9.506;2023-04-01T12:58:53;1.40;;;0.60;;
22318;SDS011;11327;52.334;9.506;2023-04-01T13:02:20;1.12;;;0.70;;
22318;SDS011;11327;52.334;9.506;2023-04-01T13:06:07;0.55;;;0.50;;
22318;SDS011;11327;52.334;9.506;2023-04-01T13:09:25;1.53;;;0.70;;
22318;SDS011;11327;52.334;9.506;2023-04-01T13:16:26;1.15;;;0.60;;
22318;SDS011;11327;52.334;9.506;2023-04-01T13:20:02;1.20;;;1.00;;
22318;SDS011;11327;52.334;9.506;2023-04-01T13:26:58;1.30;;;1.20;;
22318;SDS011;11327;52.334;9.506;2023-04-01T13:30:24;2.90;;;1.25;;
22318;SDS011;11327;52.334;9.506;2023-04-01T13:44:51;1.52;;;1.12;;
22318;SDS011;11327;52.334;9.506;2023-04-01T13:51:56;2.98;;;1.22;;
22318;SDS011;11327;52.334;9.506;2023-04-01T13:59:24;1.98;;;0.80;;
22318;SDS011;11327;52.334;9.506;2023-04-01T14:06:31;1.05;;;0.85;;
22318;SDS011;11327;52.334;9.506;2023-04-01T14:13:31;1.10;;;0.50;;
22318;SDS011;11327;52.334;9.506;2023-04-01T14:17:10;0.85;;;0.57;;
22318;SDS011;11327;52.334;9.506;2023-04-01T14:20:35;2.17;;;1.17;;
22318;SDS011;11327;52.334;9.506;2023-04-01T14:24:16;1.70;;;1.60;;
22318;SDS011;11327;52.334;9.506;2023-04-01T14:27:45;2.10;;;1.80;;
22318;SDS011;11327;52.334;9.506;2023-04-01T14:49:42;2.65;;;1.40;;
22318;SDS011;11327;52.334;9.506;2023-04-01T14:56:40;1.82;;;1.40;;
22318;SDS011;11327;52.334;9.506;2023-04-01T15:07:46;1.55;;;1.17;;
22318;SDS011;11327;52.334;9.506;2023-04-01T15:11:21;1.30;;;1.20;;
22318;SDS011;11327;52.334;9.506;2023-04-01T15:14:48;2.08;;;1.27;;
22318;SDS011;11327;52.334;9.506;2023-04-01T15:25:48;2.05;;;1.12;;
22318;SDS011;11327;52.334;9.506;2023-04-01T15:29:28;1.77;;;1.00;;
22318;SDS011;11327;52.334;9.506;2023-04-01T15:33:06;1.77;;;0.72;;
22318;SDS011;11327;52.334;9.506;2023-04-01T15:36:44;1.40;;;0.95;;
22318;SDS011;11327;52.334;9.506;2023-04-01T15:43:44;1.05;;;0.88;;
22318;SDS011;11327;52.334;9.506;2023-04-01T15:51:02;0.80;;;0.68;;
22318;SDS011;11327;52.334;9.506;2023-04-01T15:58:02;1.55;;;0.70;;
22318;SDS011;11327;52.334;9.506;2023-04-01T16:09:23;1.35;;;0.80;;
22318;SDS011;11327;52.334;9.506;2023-04-01T16:16:31;0.80;;;0.65;;
22318;SDS011;11327;52.334;9.506;2023-04-01T16:20:12;0.60;;;0.60;;
22318;SDS011;11327;52.334;9.506;2023-04-01T16:23:46;0.95;;;0.82;;
22318;SDS011;11327;52.334;9.506;2023-04-01T16:31:00;1.82;;;1.00;;
22318;SDS011;11327;52.334;9.506;2023-04-01T16:41:52;1.62;;;1.10;;
22318;SDS011;11327;52.334;9.506;2023-04-01T16:45:19;2.30;;;1.10;;
22318;SDS011;11327;52.334;9.506;2023-04-01T16:48:54;1.05;;;0.80;;
22318;SDS011;11327;52.334;9.506;2023-04-01T16:52:15;0.93;;;0.70;;
22318;SDS011;11327;52.334;9.506;2023-04-01T16:59:19;1.40;;;1.00;;
22318;SDS011;11327;52.334;9.506;2023-04-01T17:02:47;1.70;;;1.35;;
22318;SDS011;11327;52.334;9.506;2023-04-01T17:17:33;1.35;;;1.10;;
22318;SDS011;11327;52.334;9.506;2023-04-01T17:21:15;2.52;;;1.50;;
22318;SDS011;11327;52.334;9.506;2023-04-01T17:32:18;1.10;;;0.90;;
22318;SDS011;11327;52.334;9.506;2023-04-01T17:35:54;1.10;;;0.90;;
22318;SDS011;11327;52.334;9.506;2023-04-01T17:39:26;2.92;;;1.10;;
22318;SDS011;11327;52.334;9.506;2023-04-01T17:53:46;1.42;;;1.10;;
22318;SDS011;11327;52.334;9.506;2023-04-01T18:04:42;1.45;;;0.90;;
22318;SDS011;11327;52.334;9.506;2023-04-01T18:15:31;1.50;;;1.00;;
22318;SDS011;11327;52.334;9.506;2023-04-01T18:26:05;2.15;;;1.30;;
22318;SDS011;11327;52.334;9.506;2023-04-01T18:29:58;1.72;;;1.20;;
22318;SDS011;11327;52.334;9.506;2023-04-01T18:33:29;2.17;;;1.27;;
22318;SDS011;11327;52.334;9.506;2023-04-01T18:40:53;1.50;;;1.12;;
22318;SDS011;11327;52.334;9.506;2023-04-01T18:48:04;2.25;;;1.20;;
22318;SDS011;11327;52.334;9.506;2023-04-01T19:02:32;1.60;;;1.25;;
22318;SDS011;11327;52.334;9.506;2023-04-01T19:05:55;1.70;;;1.30;;
22318;SDS011;11327;52.334;9.506;2023-04-01T19:09:25;2.92;;;1.60;;
22318;SDS011;11327;52.334;9.506;2023-04-01T19:16:25;1.65;;;1.35;;
22318;SDS011;11327;52.334;9.506;2023-04-01T19:19:55;1.75;;;1.35;;
22318;SDS011;11327;52.334;9.506;2023-04-01T19:34:27;2.40;;;1.60;;
22318;SDS011;11327;52.334;9.506;2023-04-01T19:45:44;2.60;;;1.82;;
22318;SDS011;11327;52.334;9.506;2023-04-01T19:52:44;2.15;;;1.87;;
22318;SDS011;11327;52.334;9.506;2023-04-01T19:56:16;2.87;;;2.20;;
22318;SDS011;11327;52.334;9.506;2023-04-01T20:00:02;2.77;;;2.17;;
22318;SDS011;11327;52.334;9.506;2023-04-01T20:07:05;2.27;;;1.87;;
22318;SDS011;11327;52.334;9.506;2023-04-01T20:10:37;2.50;;;1.80;;
22318;SDS011;11327;52.334;9.506;2023-04-01T20:18:02;2.10;;;1.90;;
22318;SDS011;11327;52.334;9.506;2023-04-01T20:24:57;2.12;;;1.70;;
22318;SDS011;11327;52.334;9.506;2023-04-01T20:28:21;2.50;;;1.85;;
22318;SDS011;11327;52.334;9.506;2023-04-01T20:31:47;3.47;;;1.82;;
22318;SDS011;11327;52.334;9.506;2023-04-01T20:42:53;2.77;;;2.10;;
22318;SDS011;11327;52.334;9.506;2023-04-01T20:46:20;3.55;;;2.40;;
22318;SDS011;11327;52.334;9.506;2023-04-01T20:53:43;4.87;;;2.58;;
22318;SDS011;11327;52.334;9.506;2023-04-01T21:12:14;4.95;;;3.20;;
22318;SDS011;11327;52.334;9.506;2023-04-01T21:15:44;5.37;;;3.40;;
22318;SDS011;11327;52.334;9.506;2023-04-01T21:26:31;4.83;;;3.60;;
22318;SDS011;11327;52.334;9.506;2023-04-01T21:30:17;5.45;;;3.55;;
22318;SDS011;11327;52.334;9.506;2023-04-01T22:10:48;5.47;;;3.72;;
22318;SDS011;11327;52.334;9.506;2023-04-01T22:14:28;5.90;;;3.72;;
22318;SDS011;11327;52.334;9.506;2023-04-01T22:17:52;5.97;;;4.15;;
22318;SDS011;11327;52.334;9.506;2023-04-01T22:21:32;5.28;;;4.30;;
22318;SDS011;11327;52.334;9.506;2023-04-01T22:25:14;6.60;;;4.45;;
22318;SDS011;11327;52.334;9.506;2023-04-01T22:28:38;6.75;;;4.10;;
22318;SDS011;11327;52.334;9.506;2023-04-01T22:52:55;6.53;;;4.20;;
22318;SDS011;11327;52.334;9.506;2023-04-01T22:56:20;6.67;;;3.75;;
22318;SDS011;11327;52.334;9.506;2023-04-01T23:03:20;8.45;;;4.12;;
22318;SDS011;11327;52.334;9.506;2023-04-01T23:06:47;7.30;;;4.55;;
22318;SDS011;11327;52.334;9.506;2023-04-01T23:10:12;6.75;;;4.60;;
22318;SDS011;11327;52.334;9.506;2023-04-01T23:13:36;8.73;;;4.65;;
22318;SDS011;11327;52.334;9.506;2023-04-01T23:24:11;6.97;;;4.70;;
22318;SDS011;11327;52.334;9.506;2023-04-01T23:27:43;6.45;;;5.00;;
22318;SDS011;11327;52.334;9.506;2023-04-01T23:34:53;7.78;;;5.08;;
22318;SDS011;11327;52.334;9.506;2023-04-01T23:38:17;8.55;;;5.37;;
22318;SDS011;11327;52.334;9.506;2023-04-01T23:41:39;8.43;;;5.22;;
22318;SDS011;11327;52.334;9.506;2023-04-01T23:45:04;8.70;;;5.47;;
22318;SDS011;11327;52.334;9.506;2023-04-01T23:48:29;11.10;;;6.10;;
22318;SDS011;11327;52.334;9.506;2023-04-01T23:51:53;9.95;;;5.58;;
22318;SDS011;11327;52.334;9.506;2023-04-01T23:55:24;11.93;;;5.95;;
22318;SDS011;11327;52.334;9.506;2023-04-01T23:58:48;8.05;;;5.62;;
